sensor_id;sensor_type;location;lat;lon;timestamp;P1;durP1;ratioP1;P2;durP2;ratioP2
47153;SDS011;32907;41.412;2.164;2024-01-30T00:01:46;10.52;;;5.10;;
47153;SDS011;32907;41.412;2.164;2024-01-30T00:04:14;10.70;;;5.28;;
47153;SDS011;32907;41.412;2.164;2024-01-30T00:06:44;10.40;;;5.00;;
47153;SDS011;32907;41.412;2.164;2024-01-30T00:09:12;10.48;;;5.55;;
47153;SDS011;32907;41.412;2.164;2024-01-30T00:11:41;12.15;;;5.75;;
47153;SDS011;32907;41.412;2.164;2024-01-30T00:14:09;10.05;;;5.38;;
47153;SDS011;32907;41.412;2.164;2024-01-30T00:16:37;9.20;;;5.25;;
47153;SDS011;32907;41.412;2.164;2024-01-30T00:19:05;10.73;;;5.97;;
47153;SDS011;32907;41.412;2.164;2024-01-30T00:21:33;10.68;;;6.20;;
47153;SDS011;32907;41.412;2.164;2024-01-30T00:24:02;11.30;;;5.47;;
47153;SDS011;32907;41.412;2.164;2024-01-30T00:26:30;9.20;;;5.80;;
47153;SDS011;32907;41.412;2.164;2024-01-30T00:28:59;10.25;;;5.93;;
47153;SDS011;32907;41.412;2.164;2024-01-30T00:31:27;8.15;;;5.72;;
47153;SDS011;32907;41.412;2.164;2024-01-30T00:33:55;10.27;;;6.32;;
47153;SDS011;32907;41.412;2.164;2024-01-30T00:36:23;10.88;;;6.72;;
47153;SDS011;32907;41.412;2.164;2024-01-30T00:38:52;9.25;;;6.03;;
47153;SDS011;32907;41.412;2.164;2024-01-30T00:41:20;11.60;;;6.68;;
47153;SDS011;32907;41.412;2.164;2024-01-30T00:43:48;10.35;;;6.47;;
47153;SDS011;32907;41.412;2.164;2024-01-30T00:46:17;10.82;;;6.22;;
47153;SDS011;32907;41.412;2.164;2024-01-30T00:48:46;12.40;;;6.35;;
47153;SDS011;32907;41.412;2.164;2024-01-30T00:51:14;10.55;;;6.57;;
47153;SDS011;32907;41.412;2.164;2024-01-30T00:53:42;11.27;;;6.65;;
47153;SDS011;32907;41.412;2.164;2024-01-30T00:56:10;10.30;;;6.53;;
47153;SDS011;32907;41.412;2.164;2024-01-30T00:58:38;12.45;;;6.63;;
47153;SDS011;32907;41.412;2.164;2024-01-30T01:01:07;13.05;;;7.18;;
47153;SDS011;32907;41.412;2.164;2024-01-30T01:03:35;16.05;;;7.07;;
47153;SDS011;32907;41.412;2.164;2024-01-30T01:06:03;11.77;;;6.45;;
47153;SDS011;32907;41.412;2.164;2024-01-30T01:08:32;12.07;;;6.25;;
47153;SDS011;32907;41.412;2.164;2024-01-30T01:11:00;8.90;;;6.07;;
47153;SDS011;32907;41.412;2.164;2024-01-30T01:13:30;12.55;;;6.88;;
47153;SDS011;32907;41.412;2.164;2024-01-30T01:15:59;11.35;;;6.72;;
47153;SDS011;32907;41.412;2.164;2024-01-30T01:18:27;12.93;;;6.40;;
47153;SDS011;32907;41.412;2.164;2024-01-30T01:20:55;11.25;;;6.20;;
47153;SDS011;32907;41.412;2.164;2024-01-30T01:23:23;10.00;;;6.53;;
47153;SDS011;32907;41.412;2.164;2024-01-30T01:25:51;8.63;;;5.97;;
47153;SDS011;32907;41.412;2.164;2024-01-30T01:28:19;11.88;;;6.38;;
47153;SDS011;32907;41.412;2.164;2024-01-30T01:30:48;11.48;;;6.53;;
47153;SDS011;32907;41.412;2.164;2024-01-30T01:33:16;9.35;;;5.80;;
47153;SDS011;32907;41.412;2.164;2024-01-30T01:35:45;12.85;;;6.32;;
47153;SDS011;32907;41.412;2.164;2024-01-30T01:38:13;10.57;;;5.95;;
47153;SDS011;32907;41.412;2.164;2024-01-30T01:40:42;8.70;;;5.55;;
47153;SDS011;32907;41.412;2.164;2024-01-30T01:43:12;12.25;;;5.53;;
47153;SDS011;32907;41.412;2.164;2024-01-30T01:45:40;9.60;;;5.85;;
47153;SDS011;32907;41.412;2.164;2024-01-30T01:48:08;8.63;;;5.00;;
47153;SDS011;32907;41.412;2.164;2024-01-30T01:50:36;8.82;;;5.40;;
47153;SDS011;32907;41.412;2.164;2024-01-30T01:53:06;9.18;;;4.90;;
47153;SDS011;32907;41.412;2.164;2024-01-30T01:55:36;7.78;;;4.72;;
47153;SDS011;32907;41.412;2.164;2024-01-30T01:58:05;11.23;;;5.20;;
47153;SDS011;32907;41.412;2.164;2024-01-30T02:00:33;9.43;;;5.07;;
47153;SDS011;32907;41.412;2.164;2024-01-30T02:03:04;9.02;;;5.38;;
47153;SDS011;32907;41.412;2.164;2024-01-30T02:05:33;10.68;;;5.03;;
47153;SDS011;32907;41.412;2.164;2024-01-30T02:08:02;11.60;;;5.45;;
47153;SDS011;32907;41.412;2.164;2024-01-30T02:10:31;9.48;;;5.20;;
47153;SDS011;32907;41.412;2.164;2024-01-30T02:12:59;9.20;;;4.50;;
47153;SDS011;32907;41.412;2.164;2024-01-30T02:15:27;8.90;;;4.93;;
47153;SDS011;32907;41.412;2.164;2024-01-30T02:17:56;11.13;;;4.53;;
47153;SDS011;32907;41.412;2.164;2024-01-30T02:20:25;9.48;;;4.50;;
47153;SDS011;32907;41.412;2.164;2024-01-30T02:22:54;10.40;;;4.95;;
47153;SDS011;32907;41.412;2.164;2024-01-30T02:25:38;9.80;;;4.40;;
47153;SDS011;32907;41.412;2.164;2024-01-30T02:28:13;10.63;;;4.03;;
47153;SDS011;32907;41.412;2.164;2024-01-30T02:30:45;11.00;;;4.55;;
47153;SDS011;32907;41.412;2.164;2024-01-30T02:33:14;7.40;;;3.67;;
47153;SDS011;32907;41.412;2.164;2024-01-30T02:35:42;9.45;;;3.97;;
47153;SDS011;32907;41.412;2.164;2024-01-30T02:38:10;6.72;;;3.97;;
47153;SDS011;32907;41.412;2.164;2024-01-30T02:40:39;8.75;;;4.15;;
47153;SDS011;32907;41.412;2.164;2024-01-30T02:43:07;7.95;;;3.92;;
47153;SDS011;32907;41.412;2.164;2024-01-30T02:45:35;9.85;;;3.95;;
47153;SDS011;32907;41.412;2.164;2024-01-30T02:48:03;7.43;;;3.75;;
47153;SDS011;32907;41.412;2.164;2024-01-30T02:50:32;6.47;;;3.63;;
47153;SDS011;32907;41.412;2.164;2024-01-30T02:53:00;9.00;;;3.70;;
47153;SDS011;32907;41.412;2.164;2024-01-30T02:55:28;8.90;;;3.78;;
47153;SDS011;32907;41.412;2.164;2024-01-30T02:57:57;7.07;;;3.45;;
47153;SDS011;32907;41.412;2.164;2024-01-30T03:00:25;9.38;;;3.72;;
47153;SDS011;32907;41.412;2.164;2024-01-30T03:02:53;11.95;;;4.18;;
47153;SDS011;32907;41.412;2.164;2024-01-30T03:05:21;10.63;;;3.85;;
47153;SDS011;32907;41.412;2.164;2024-01-30T03:07:49;6.82;;;3.05;;
47153;SDS011;32907;41.412;2.164;2024-01-30T03:10:18;8.90;;;4.25;;
47153;SDS011;32907;41.412;2.164;2024-01-30T03:12:47;9.45;;;3.70;;
47153;SDS011;32907;41.412;2.164;2024-01-30T03:15:15;8.95;;;3.58;;
47153;SDS011;32907;41.412;2.164;2024-01-30T03:17:43;9.82;;;3.78;;
47153;SDS011;32907;41.412;2.164;2024-01-30T03:20:11;8.32;;;3.72;;
47153;SDS011;32907;41.412;2.164;2024-01-30T03:22:39;10.60;;;3.55;;
47153;SDS011;32907;41.412;2.164;2024-01-30T03:25:07;8.80;;;3.25;;
47153;SDS011;32907;41.412;2.164;2024-01-30T03:27:35;7.15;;;3.63;;
47153;SDS011;32907;41.412;2.164;2024-01-30T03:30:03;10.45;;;3.60;;
47153;SDS011;32907;41.412;2.164;2024-01-30T03:32:33;7.95;;;3.22;;
47153;SDS011;32907;41.412;2.164;2024-01-30T03:35:02;6.80;;;3.65;;
47153;SDS011;32907;41.412;2.164;2024-01-30T03:37:30;10.45;;;3.90;;
47153;SDS011;32907;41.412;2.164;2024-01-30T03:39:58;9.63;;;3.67;;
47153;SDS011;32907;41.412;2.164;2024-01-30T03:42:27;7.80;;;3.72;;
47153;SDS011;32907;41.412;2.164;2024-01-30T03:44:56;9.20;;;4.03;;
47153;SDS011;32907;41.412;2.164;2024-01-30T03:47:24;8.73;;;4.68;;
47153;SDS011;32907;41.412;2.164;2024-01-30T03:49:52;8.68;;;4.75;;
47153;SDS011;32907;41.412;2.164;2024-01-30T03:52:21;9.50;;;4.88;;
47153;SDS011;32907;41.412;2.164;2024-01-30T03:54:49;10.32;;;4.95;;
47153;SDS011;32907;41.412;2.164;2024-01-30T03:57:17;13.05;;;5.07;;
47153;SDS011;32907;41.412;2.164;2024-01-30T03:59:46;10.77;;;5.57;;
47153;SDS011;32907;41.412;2.164;2024-01-30T04:02:14;12.10;;;5.43;;
47153;SDS011;32907;41.412;2.164;2024-01-30T04:04:42;11.13;;;5.25;;
47153;SDS011;32907;41.412;2.164;2024-01-30T04:07:10;11.32;;;5.32;;
47153;SDS011;32907;41.412;2.164;2024-01-30T04:09:39;10.98;;;5.60;;
47153;SDS011;32907;41.412;2.164;2024-01-30T04:12:07;11.15;;;5.88;;
47153;SDS011;32907;41.412;2.164;2024-01-30T04:14:35;11.55;;;5.70;;
47153;SDS011;32907;41.412;2.164;2024-01-30T04:17:06;10.20;;;5.57;;
47153;SDS011;32907;41.412;2.164;2024-01-30T04:19:36;14.55;;;6.10;;
47153;SDS011;32907;41.412;2.164;2024-01-30T04:22:06;13.65;;;6.53;;
47153;SDS011;32907;41.412;2.164;2024-01-30T04:24:34;13.32;;;7.25;;
47153;SDS011;32907;41.412;2.164;2024-01-30T04:27:02;11.25;;;7.57;;
47153;SDS011;32907;41.412;2.164;2024-01-30T04:29:32;17.13;;;9.10;;
47153;SDS011;32907;41.412;2.164;2024-01-30T04:32:00;12.40;;;7.60;;
47153;SDS011;32907;41.412;2.164;2024-01-30T04:34:29;14.70;;;7.65;;
47153;SDS011;32907;41.412;2.164;2024-01-30T04:36:57;15.30;;;7.00;;
47153;SDS011;32907;41.412;2.164;2024-01-30T04:39:25;13.10;;;6.22;;
47153;SDS011;32907;41.412;2.164;2024-01-30T04:41:53;11.52;;;5.85;;
47153;SDS011;32907;41.412;2.164;2024-01-30T04:44:22;11.38;;;6.78;;
47153;SDS011;32907;41.412;2.164;2024-01-30T04:46:50;15.80;;;6.60;;
47153;SDS011;32907;41.412;2.164;2024-01-30T04:49:18;14.00;;;7.13;;
47153;SDS011;32907;41.412;2.164;2024-01-30T04:51:46;12.75;;;7.20;;
47153;SDS011;32907;41.412;2.164;2024-01-30T04:54:14;13.82;;;6.85;;
47153;SDS011;32907;41.412;2.164;2024-01-30T04:56:44;10.35;;;6.22;;
47153;SDS011;32907;41.412;2.164;2024-01-30T04:59:13;13.10;;;7.38;;
47153;SDS011;32907;41.412;2.164;2024-01-30T05:01:41;11.48;;;6.75;;
47153;SDS011;32907;41.412;2.164;2024-01-30T05:04:09;14.25;;;7.47;;
47153;SDS011;32907;41.412;2.164;2024-01-30T05:06:42;11.07;;;6.90;;
47153;SDS011;32907;41.412;2.164;2024-01-30T05:09:11;9.68;;;5.57;;
47153;SDS011;32907;41.412;2.164;2024-01-30T05:11:40;10.90;;;6.07;;
47153;SDS011;32907;41.412;2.164;2024-01-30T05:14:08;13.75;;;5.90;;
47153;SDS011;32907;41.412;2.164;2024-01-30T05:16:38;10.65;;;5.53;;
47153;SDS011;32907;41.412;2.164;2024-01-30T05:19:06;11.88;;;5.57;;
47153;SDS011;32907;41.412;2.164;2024-01-30T05:21:35;10.40;;;4.15;;
47153;SDS011;32907;41.412;2.164;2024-01-30T05:24:03;10.27;;;5.03;;
47153;SDS011;32907;41.412;2.164;2024-01-30T05:26:31;13.65;;;4.72;;
47153;SDS011;32907;41.412;2.164;2024-01-30T05:28:59;10.15;;;4.70;;
47153;SDS011;32907;41.412;2.164;2024-01-30T05:31:27;8.38;;;4.38;;
47153;SDS011;32907;41.412;2.164;2024-01-30T05:33:56;12.60;;;4.80;;
47153;SDS011;32907;41.412;2.164;2024-01-30T05:36:24;11.52;;;5.63;;
47153;SDS011;32907;41.412;2.164;2024-01-30T05:38:52;12.95;;;6.03;;
47153;SDS011;32907;41.412;2.164;2024-01-30T05:41:21;14.15;;;7.10;;
47153;SDS011;32907;41.412;2.164;2024-01-30T05:43:49;14.27;;;6.78;;
47153;SDS011;32907;41.412;2.164;2024-01-30T05:46:20;14.95;;;6.75;;
47153;SDS011;32907;41.412;2.164;2024-01-30T05:48:52;9.93;;;5.82;;
47153;SDS011;32907;41.412;2.164;2024-01-30T05:51:20;10.35;;;5.60;;
47153;SDS011;32907;41.412;2.164;2024-01-30T05:53:48;10.57;;;5.50;;
47153;SDS011;32907;41.412;2.164;2024-01-30T05:56:16;12.93;;;5.90;;
47153;SDS011;32907;41.412;2.164;2024-01-30T05:58:44;14.43;;;5.43;;
47153;SDS011;32907;41.412;2.164;2024-01-30T06:01:12;9.80;;;4.80;;
47153;SDS011;32907;41.412;2.164;2024-01-30T06:03:40;11.57;;;4.82;;
47153;SDS011;32907;41.412;2.164;2024-01-30T06:06:09;10.18;;;4.75;;
47153;SDS011;32907;41.412;2.164;2024-01-30T06:08:37;6.93;;;4.05;;
47153;SDS011;32907;41.412;2.164;2024-01-30T06:11:05;9.68;;;4.45;;
47153;SDS011;32907;41.412;2.164;2024-01-30T06:13:33;8.20;;;3.95;;
47153;SDS011;32907;41.412;2.164;2024-01-30T06:16:02;10.13;;;4.93;;
47153;SDS011;32907;41.412;2.164;2024-01-30T06:18:30;9.95;;;4.93;;
47153;SDS011;32907;41.412;2.164;2024-01-30T06:20:59;9.35;;;4.15;;
47153;SDS011;32907;41.412;2.164;2024-01-30T06:23:27;12.05;;;4.60;;
47153;SDS011;32907;41.412;2.164;2024-01-30T06:25:56;10.32;;;5.05;;
47153;SDS011;32907;41.412;2.164;2024-01-30T06:28:24;10.85;;;5.35;;
47153;SDS011;32907;41.412;2.164;2024-01-30T06:30:52;9.68;;;5.70;;
47153;SDS011;32907;41.412;2.164;2024-01-30T06:33:20;14.57;;;5.57;;
47153;SDS011;32907;41.412;2.164;2024-01-30T06:35:49;9.75;;;4.25;;
47153;SDS011;32907;41.412;2.164;2024-01-30T06:38:17;13.73;;;5.00;;
47153;SDS011;32907;41.412;2.164;2024-01-30T06:40:46;11.07;;;4.35;;
47153;SDS011;32907;41.412;2.164;2024-01-30T06:43:14;9.68;;;4.60;;
47153;SDS011;32907;41.412;2.164;2024-01-30T06:45:43;8.38;;;4.50;;
47153;SDS011;32907;41.412;2.164;2024-01-30T06:48:11;9.05;;;4.03;;
47153;SDS011;32907;41.412;2.164;2024-01-30T06:50:40;9.30;;;4.55;;
47153;SDS011;32907;41.412;2.164;2024-01-30T06:53:08;8.30;;;4.75;;
47153;SDS011;32907;41.412;2.164;2024-01-30T06:55:36;8.07;;;3.95;;
47153;SDS011;32907;41.412;2.164;2024-01-30T06:58:05;11.45;;;4.80;;
47153;SDS011;32907;41.412;2.164;2024-01-30T07:00:33;11.70;;;4.63;;
47153;SDS011;32907;41.412;2.164;2024-01-30T07:03:01;21.23;;;9.95;;
47153;SDS011;32907;41.412;2.164;2024-01-30T07:05:29;26.13;;;12.07;;
47153;SDS011;32907;41.412;2.164;2024-01-30T07:07:57;18.10;;;9.45;;
47153;SDS011;32907;41.412;2.164;2024-01-30T07:10:26;15.85;;;8.10;;
47153;SDS011;32907;41.412;2.164;2024-01-30T07:12:54;10.50;;;5.93;;
47153;SDS011;32907;41.412;2.164;2024-01-30T07:15:23;10.15;;;6.05;;
47153;SDS011;32907;41.412;2.164;2024-01-30T07:17:51;9.70;;;5.13;;
47153;SDS011;32907;41.412;2.164;2024-01-30T07:20:19;10.88;;;5.38;;
47153;SDS011;32907;41.412;2.164;2024-01-30T07:22:48;10.80;;;5.00;;
47153;SDS011;32907;41.412;2.164;2024-01-30T07:25:16;10.23;;;4.70;;
47153;SDS011;32907;41.412;2.164;2024-01-30T07:27:45;9.90;;;4.68;;
47153;SDS011;32907;41.412;2.164;2024-01-30T07:30:13;9.32;;;5.10;;
47153;SDS011;32907;41.412;2.164;2024-01-30T07:32:41;10.65;;;5.18;;
47153;SDS011;32907;41.412;2.164;2024-01-30T07:35:09;7.95;;;4.40;;
47153;SDS011;32907;41.412;2.164;2024-01-30T07:37:39;7.68;;;4.35;;
47153;SDS011;32907;41.412;2.164;2024-01-30T07:40:07;9.15;;;4.38;;
47153;SDS011;32907;41.412;2.164;2024-01-30T07:42:36;12.13;;;4.50;;
47153;SDS011;32907;41.412;2.164;2024-01-30T07:45:04;11.55;;;4.28;;
47153;SDS011;32907;41.412;2.164;2024-01-30T07:47:33;8.75;;;4.47;;
47153;SDS011;32907;41.412;2.164;2024-01-30T07:50:02;13.00;;;4.53;;
47153;SDS011;32907;41.412;2.164;2024-01-30T07:52:30;7.05;;;4.35;;
47153;SDS011;32907;41.412;2.164;2024-01-30T07:54:58;9.07;;;4.25;;
47153;SDS011;32907;41.412;2.164;2024-01-30T07:57:27;7.93;;;4.15;;
47153;SDS011;32907;41.412;2.164;2024-01-30T07:59:55;14.02;;;4.72;;
47153;SDS011;32907;41.412;2.164;2024-01-30T08:02:25;7.80;;;4.32;;
47153;SDS011;32907;41.412;2.164;2024-01-30T08:04:53;7.60;;;3.78;;
47153;SDS011;32907;41.412;2.164;2024-01-30T08:07:21;9.57;;;4.07;;
47153;SDS011;32907;41.412;2.164;2024-01-30T08:09:50;9.30;;;4.38;;
47153;SDS011;32907;41.412;2.164;2024-01-30T08:12:18;10.23;;;4.63;;
47153;SDS011;32907;41.412;2.164;2024-01-30T08:14:46;7.90;;;4.63;;
47153;SDS011;32907;41.412;2.164;2024-01-30T08:17:14;7.60;;;4.75;;
47153;SDS011;32907;41.412;2.164;2024-01-30T08:19:43;12.32;;;4.90;;
47153;SDS011;32907;41.412;2.164;2024-01-30T08:22:11;10.48;;;4.78;;
47153;SDS011;32907;41.412;2.164;2024-01-30T08:24:40;16.50;;;4.88;;
47153;SDS011;32907;41.412;2.164;2024-01-30T08:27:09;7.63;;;4.03;;
47153;SDS011;32907;41.412;2.164;2024-01-30T08:29:37;7.93;;;4.15;;
47153;SDS011;32907;41.412;2.164;2024-01-30T08:32:06;8.23;;;3.80;;
47153;SDS011;32907;41.412;2.164;2024-01-30T08:34:35;10.52;;;4.25;;
47153;SDS011;32907;41.412;2.164;2024-01-30T08:37:03;11.35;;;4.50;;
47153;SDS011;32907;41.412;2.164;2024-01-30T08:39:31;11.55;;;5.15;;
47153;SDS011;32907;41.412;2.164;2024-01-30T08:41:59;9.77;;;4.85;;
47153;SDS011;32907;41.412;2.164;2024-01-30T08:44:28;7.95;;;3.75;;
47153;SDS011;32907;41.412;2.164;2024-01-30T08:46:56;9.98;;;4.28;;
47153;SDS011;32907;41.412;2.164;2024-01-30T08:49:26;9.00;;;4.40;;
47153;SDS011;32907;41.412;2.164;2024-01-30T08:51:54;10.05;;;5.00;;
47153;SDS011;32907;41.412;2.164;2024-01-30T08:54:23;10.38;;;4.60;;
47153;SDS011;32907;41.412;2.164;2024-01-30T08:56:51;9.35;;;4.28;;
47153;SDS011;32907;41.412;2.164;2024-01-30T08:59:21;8.48;;;4.25;;
47153;SDS011;32907;41.412;2.164;2024-01-30T09:01:49;8.35;;;4.05;;
47153;SDS011;32907;41.412;2.164;2024-01-30T09:04:37;8.00;;;4.47;;
47153;SDS011;32907;41.412;2.164;2024-01-30T09:07:06;10.25;;;4.80;;
47153;SDS011;32907;41.412;2.164;2024-01-30T09:09:38;10.23;;;4.53;;
47153;SDS011;32907;41.412;2.164;2024-01-30T09:12:07;13.05;;;3.92;;
47153;SDS011;32907;41.412;2.164;2024-01-30T09:14:39;8.27;;;4.18;;
47153;SDS011;32907;41.412;2.164;2024-01-30T09:17:11;10.27;;;4.22;;
47153;SDS011;32907;41.412;2.164;2024-01-30T09:19:40;9.38;;;4.40;;
47153;SDS011;32907;41.412;2.164;2024-01-30T09:22:09;9.60;;;4.60;;
47153;SDS011;32907;41.412;2.164;2024-01-30T09:24:37;9.25;;;4.30;;
47153;SDS011;32907;41.412;2.164;2024-01-30T09:27:05;10.63;;;5.40;;
47153;SDS011;32907;41.412;2.164;2024-01-30T09:29:34;10.70;;;5.15;;
47153;SDS011;32907;41.412;2.164;2024-01-30T09:32:04;11.88;;;5.55;;
47153;SDS011;32907;41.412;2.164;2024-01-30T09:34:34;10.23;;;5.20;;
47153;SDS011;32907;41.412;2.164;2024-01-30T09:37:02;13.27;;;5.90;;
47153;SDS011;32907;41.412;2.164;2024-01-30T09:39:30;11.52;;;5.95;;
47153;SDS011;32907;41.412;2.164;2024-01-30T09:42:05;9.48;;;6.18;;
47153;SDS011;32907;41.412;2.164;2024-01-30T09:44:38;12.73;;;7.05;;
47153;SDS011;32907;41.412;2.164;2024-01-30T09:47:10;10.90;;;5.85;;
47153;SDS011;32907;41.412;2.164;2024-01-30T09:49:38;10.43;;;5.40;;
47153;SDS011;32907;41.412;2.164;2024-01-30T09:52:07;9.15;;;5.00;;
47153;SDS011;32907;41.412;2.164;2024-01-30T09:54:36;7.35;;;3.90;;
47153;SDS011;32907;41.412;2.164;2024-01-30T09:57:06;9.35;;;4.13;;
47153;SDS011;32907;41.412;2.164;2024-01-30T09:59:35;8.73;;;3.85;;
47153;SDS011;32907;41.412;2.164;2024-01-30T10:02:03;12.77;;;4.00;;
47153;SDS011;32907;41.412;2.164;2024-01-30T10:04:32;8.68;;;4.93;;
47153;SDS011;32907;41.412;2.164;2024-01-30T10:07:03;8.60;;;4.85;;
47153;SDS011;32907;41.412;2.164;2024-01-30T10:09:32;9.13;;;4.63;;
47153;SDS011;32907;41.412;2.164;2024-01-30T10:12:02;6.35;;;4.07;;
47153;SDS011;32907;41.412;2.164;2024-01-30T10:14:31;8.75;;;4.95;;
47153;SDS011;32907;41.412;2.164;2024-01-30T10:17:00;8.77;;;4.82;;
47153;SDS011;32907;41.412;2.164;2024-01-30T10:19:33;9.43;;;5.10;;
47153;SDS011;32907;41.412;2.164;2024-01-30T10:22:01;10.85;;;5.40;;
47153;SDS011;32907;41.412;2.164;2024-01-30T10:24:29;11.55;;;6.25;;
47153;SDS011;32907;41.412;2.164;2024-01-30T10:26:59;13.52;;;7.88;;
47153;SDS011;32907;41.412;2.164;2024-01-30T10:29:27;12.25;;;7.38;;
47153;SDS011;32907;41.412;2.164;2024-01-30T10:32:06;13.60;;;7.43;;
47153;SDS011;32907;41.412;2.164;2024-01-30T10:34:34;10.18;;;5.90;;
47153;SDS011;32907;41.412;2.164;2024-01-30T10:37:09;11.20;;;5.65;;
47153;SDS011;32907;41.412;2.164;2024-01-30T10:39:45;13.35;;;6.05;;
47153;SDS011;32907;41.412;2.164;2024-01-30T10:42:15;11.57;;;5.28;;
47153;SDS011;32907;41.412;2.164;2024-01-30T10:47:36;9.35;;;5.25;;
47153;SDS011;32907;41.412;2.164;2024-01-30T10:50:05;10.68;;;5.40;;
47153;SDS011;32907;41.412;2.164;2024-01-30T10:52:36;9.57;;;4.68;;
47153;SDS011;32907;41.412;2.164;2024-01-30T10:55:07;10.48;;;4.85;;
47153;SDS011;32907;41.412;2.164;2024-01-30T10:57:37;10.15;;;4.68;;
47153;SDS011;32907;41.412;2.164;2024-01-30T11:00:06;9.13;;;4.43;;
47153;SDS011;32907;41.412;2.164;2024-01-30T11:02:41;7.90;;;4.38;;
47153;SDS011;32907;41.412;2.164;2024-01-30T11:05:11;6.78;;;4.40;;
47153;SDS011;32907;41.412;2.164;2024-01-30T11:07:40;8.25;;;4.25;;
47153;SDS011;32907;41.412;2.164;2024-01-30T11:10:12;8.93;;;4.80;;
47153;SDS011;32907;41.412;2.164;2024-01-30T11:12:43;9.35;;;5.65;;
47153;SDS011;32907;41.412;2.164;2024-01-30T11:15:17;7.78;;;4.80;;
47153;SDS011;32907;41.412;2.164;2024-01-30T11:17:49;9.30;;;5.25;;
47153;SDS011;32907;41.412;2.164;2024-01-30T11:20:27;8.57;;;5.15;;
47153;SDS011;32907;41.412;2.164;2024-01-30T11:23:00;12.98;;;5.78;;
47153;SDS011;32907;41.412;2.164;2024-01-30T11:25:34;9.00;;;4.43;;
47153;SDS011;32907;41.412;2.164;2024-01-30T11:28:04;8.88;;;4.50;;
47153;SDS011;32907;41.412;2.164;2024-01-30T11:30:32;9.55;;;4.18;;
47153;SDS011;32907;41.412;2.164;2024-01-30T11:33:10;8.00;;;3.72;;
47153;SDS011;32907;41.412;2.164;2024-01-30T11:35:43;7.75;;;4.55;;
47153;SDS011;32907;41.412;2.164;2024-01-30T11:38:13;9.05;;;5.63;;
47153;SDS011;32907;41.412;2.164;2024-01-30T11:40:42;12.93;;;5.88;;
47153;SDS011;32907;41.412;2.164;2024-01-30T11:43:11;11.07;;;5.57;;
47153;SDS011;32907;41.412;2.164;2024-01-30T11:45:41;10.35;;;5.47;;
47153;SDS011;32907;41.412;2.164;2024-01-30T11:48:11;7.30;;;4.35;;
47153;SDS011;32907;41.412;2.164;2024-01-30T11:50:41;7.10;;;3.78;;
47153;SDS011;32907;41.412;2.164;2024-01-30T11:53:10;10.48;;;3.42;;
47153;SDS011;32907;41.412;2.164;2024-01-30T11:55:38;10.45;;;3.58;;
47153;SDS011;32907;41.412;2.164;2024-01-30T11:58:07;8.27;;;2.95;;
47153;SDS011;32907;41.412;2.164;2024-01-30T12:00:36;6.88;;;2.85;;
47153;SDS011;32907;41.412;2.164;2024-01-30T12:03:04;6.53;;;2.58;;
47153;SDS011;32907;41.412;2.164;2024-01-30T12:05:34;6.38;;;2.47;;
47153;SDS011;32907;41.412;2.164;2024-01-30T12:08:04;8.10;;;2.92;;
47153;SDS011;32907;41.412;2.164;2024-01-30T12:10:33;10.02;;;3.10;;
47153;SDS011;32907;41.412;2.164;2024-01-30T12:13:01;6.18;;;2.65;;
47153;SDS011;32907;41.412;2.164;2024-01-30T12:15:30;7.70;;;2.67;;
47153;SDS011;32907;41.412;2.164;2024-01-30T12:18:05;9.95;;;3.40;;
47153;SDS011;32907;41.412;2.164;2024-01-30T12:20:35;10.30;;;3.35;;
47153;SDS011;32907;41.412;2.164;2024-01-30T12:23:04;8.27;;;2.97;;
47153;SDS011;32907;41.412;2.164;2024-01-30T12:25:32;7.72;;;3.35;;
47153;SDS011;32907;41.412;2.164;2024-01-30T12:28:01;9.90;;;3.35;;
47153;SDS011;32907;41.412;2.164;2024-01-30T12:30:30;6.50;;;2.92;;
47153;SDS011;32907;41.412;2.164;2024-01-30T12:32:58;7.90;;;3.30;;
47153;SDS011;32907;41.412;2.164;2024-01-30T12:35:29;7.70;;;2.97;;
47153;SDS011;32907;41.412;2.164;2024-01-30T12:38:00;6.13;;;3.50;;
47153;SDS011;32907;41.412;2.164;2024-01-30T12:40:28;7.82;;;3.45;;
47153;SDS011;32907;41.412;2.164;2024-01-30T12:42:57;6.43;;;3.70;;
47153;SDS011;32907;41.412;2.164;2024-01-30T12:45:25;7.28;;;2.90;;
47153;SDS011;32907;41.412;2.164;2024-01-30T12:47:54;10.10;;;4.05;;
47153;SDS011;32907;41.412;2.164;2024-01-30T12:50:22;6.07;;;2.97;;
47153;SDS011;32907;41.412;2.164;2024-01-30T12:52:51;8.82;;;2.90;;
47153;SDS011;32907;41.412;2.164;2024-01-30T12:55:19;6.35;;;2.78;;
47153;SDS011;32907;41.412;2.164;2024-01-30T12:57:47;10.27;;;3.50;;
47153;SDS011;32907;41.412;2.164;2024-01-30T13:00:16;8.85;;;4.07;;
47153;SDS011;32907;41.412;2.164;2024-01-30T13:02:45;9.18;;;3.75;;
47153;SDS011;32907;41.412;2.164;2024-01-30T13:05:13;7.30;;;3.53;;
47153;SDS011;32907;41.412;2.164;2024-01-30T13:07:41;9.88;;;3.35;;
47153;SDS011;32907;41.412;2.164;2024-01-30T13:10:10;6.07;;;2.45;;
47153;SDS011;32907;41.412;2.164;2024-01-30T13:12:39;7.85;;;2.50;;
47153;SDS011;32907;41.412;2.164;2024-01-30T13:15:07;8.07;;;2.70;;
47153;SDS011;32907;41.412;2.164;2024-01-30T13:17:36;8.20;;;2.60;;
47153;SDS011;32907;41.412;2.164;2024-01-30T13:20:05;4.68;;;2.00;;
47153;SDS011;32907;41.412;2.164;2024-01-30T13:22:39;6.03;;;2.15;;
47153;SDS011;32907;41.412;2.164;2024-01-30T13:25:07;7.75;;;2.10;;
47153;SDS011;32907;41.412;2.164;2024-01-30T13:27:36;7.45;;;2.75;;
47153;SDS011;32907;41.412;2.164;2024-01-30T13:30:06;8.73;;;4.18;;
47153;SDS011;32907;41.412;2.164;2024-01-30T13:32:36;7.00;;;4.28;;
47153;SDS011;32907;41.412;2.164;2024-01-30T13:35:04;8.77;;;4.10;;
47153;SDS011;32907;41.412;2.164;2024-01-30T13:37:33;8.63;;;4.00;;
47153;SDS011;32907;41.412;2.164;2024-01-30T13:40:03;8.10;;;3.83;;
47153;SDS011;32907;41.412;2.164;2024-01-30T13:42:40;6.47;;;3.38;;
47153;SDS011;32907;41.412;2.164;2024-01-30T13:45:09;6.10;;;2.70;;
47153;SDS011;32907;41.412;2.164;2024-01-30T13:47:38;7.13;;;3.22;;
47153;SDS011;32907;41.412;2.164;2024-01-30T13:50:07;7.07;;;3.05;;
47153;SDS011;32907;41.412;2.164;2024-01-30T13:52:36;7.88;;;3.25;;
47153;SDS011;32907;41.412;2.164;2024-01-30T13:55:11;6.20;;;2.35;;
47153;SDS011;32907;41.412;2.164;2024-01-30T13:57:40;6.68;;;2.47;;
47153;SDS011;32907;41.412;2.164;2024-01-30T14:00:09;5.32;;;2.35;;
47153;SDS011;32907;41.412;2.164;2024-01-30T14:02:41;7.88;;;2.90;;
47153;SDS011;32907;41.412;2.164;2024-01-30T14:05:10;6.65;;;2.65;;
47153;SDS011;32907;41.412;2.164;2024-01-30T14:07:38;7.00;;;3.55;;
47153;SDS011;32907;41.412;2.164;2024-01-30T14:10:09;8.95;;;2.30;;
47153;SDS011;32907;41.412;2.164;2024-01-30T14:12:42;4.88;;;2.38;;
47153;SDS011;32907;41.412;2.164;2024-01-30T14:15:16;8.07;;;2.90;;
47153;SDS011;32907;41.412;2.164;2024-01-30T14:17:55;6.18;;;2.90;;
47153;SDS011;32907;41.412;2.164;2024-01-30T14:20:25;6.40;;;2.88;;
47153;SDS011;32907;41.412;2.164;2024-01-30T14:22:54;6.47;;;2.92;;
47153;SDS011;32907;41.412;2.164;2024-01-30T14:25:24;6.95;;;2.53;;
47153;SDS011;32907;41.412;2.164;2024-01-30T14:27:52;5.10;;;2.55;;
47153;SDS011;32907;41.412;2.164;2024-01-30T14:30:21;5.85;;;2.30;;
47153;SDS011;32907;41.412;2.164;2024-01-30T14:32:49;6.85;;;2.78;;
47153;SDS011;32907;41.412;2.164;2024-01-30T14:35:17;5.45;;;2.65;;
47153;SDS011;32907;41.412;2.164;2024-01-30T14:37:47;8.88;;;3.65;;
47153;SDS011;32907;41.412;2.164;2024-01-30T14:40:15;6.60;;;3.47;;
47153;SDS011;32907;41.412;2.164;2024-01-30T14:42:44;9.25;;;3.15;;
47153;SDS011;32907;41.412;2.164;2024-01-30T14:45:13;7.85;;;3.05;;
47153;SDS011;32907;41.412;2.164;2024-01-30T14:47:42;6.10;;;2.60;;
47153;SDS011;32907;41.412;2.164;2024-01-30T14:50:10;9.18;;;3.30;;
47153;SDS011;32907;41.412;2.164;2024-01-30T14:52:38;4.85;;;2.20;;
47153;SDS011;32907;41.412;2.164;2024-01-30T14:55:08;7.20;;;3.38;;